Time,TemperatureF,DewpointF,PressureIn,WindDirection,WindDirectionDegrees,WindSpeedMPH,WindSpeedGustMPH,Humidity,HourlyPrecipIn,Conditions,Clouds,dailyrainin,SolarRadiationWatts/m^2,SoftwareType,DateUTC
2013-01-28 00:04:00,20.5,17.5,30.49,WSW,243,0.0,0.0,88,0.00,,,0.00,0,Wunderground v.1.15,2013-01-28 05:04:00,
2013-01-28 00:06:00,20.4,17.4,30.50,WSW,243,0.0,0.0,88,0.00,,,0.00,0,Wunderground v.1.15,2013-01-28 05:06:00,
2013-01-28 00:10:00,20.3,17.6,30.50,WSW,243,0.0,0.0,89,0.00,,,0.00,0,Wunderground v.1.15,2013-01-28 05:10:00,
2013-01-28 00:12:00,20.3,17.6,30.50,WSW,243,0.0,0.0,89,0.00,,,0.00,0,Wunderground v.1.15,2013-01-28 05:12:00,
2013-01-28 00:18:00,20.2,17.5,30.50,WSW,243,0.0,0.0,89,0.00,,,0.00,0,Wunderground v.1.15,2013-01-28 05:18:00,
2013-01-28 00:24:00,20.1,17.4,30.51,WSW,243,0.0,0.0,89,0.00,,,0.00,0,Wunderground v.1.15,2013-01-28 05:24:00,
2013-01-28 00:30:00,19.9,17.2,30.51,WSW,243,0.0,0.0,89,0.00,,,0.00,0,Wunderground v.1.15,2013-01-28 05:30:00,
2013-01-28 00:38:00,19.7,17.0,30.51,WSW,243,0.0,0.0,89,0.00,,,0.00,0,Wunderground v.1.15,2013-01-28 05:38:00,
2013-01-28 00:44:00,19.6,16.9,30.51,WSW,243,0.0,0.0,89,0.00,,,0.00,0,Wunderground v.1.15,2013-01-28 05:44:00,
2013-01-28 00:50:00,19.5,16.8,30.51,WSW,243,0.0,0.0,89,0.00,,,0.00,0,Wunderground v.1.15,2013-01-28 05:50:00,
2013-01-28 00:56:00,19.5,16.8,30.51,WSW,243,0.0,0.0,89,0.00,,,0.00,0,Wunderground v.1.15,2013-01-28 05:56:00,
2013-01-28 01:02:00,19.5,16.8,30.51,WSW,243,0.0,0.0,89,0.00,,,0.00,0,Wunderground v.1.15,2013-01-28 06:02:00,
2013-01-28 01:08:00,19.4,16.7,30.51,WSW,243,0.0,0.0,89,0.00,,,0.00,0,Wunderground v.1.15,2013-01-28 06:08:00,
2013-01-28 01:14:00,19.5,16.8,30.51,WSW,243,0.0,0.0,89,0.00,,,0.00,0,Wunderground v.1.15,2013-01-28 06:14:00,
2013-01-28 01:20:00,19.6,17.1,30.51,WSW,243,0.0,0.0,90,0.00,,,0.00,0,Wunderground v.1.15,2013-01-28 06:20:00,
2013-01-28 01:26:00,19.8,17.3,30.51,WSW,243,0.0,0.0,90,0.00,,,0.00,0,Wunderground v.1.15,2013-01-28 06:26:00,
2013-01-28 01:32:00,19.9,17.4,30.51,WSW,243,0.0,0.0,90,0.00,,,0.00,0,Wunderground v.1.15,2013-01-28 06:32:00,
2013-01-28 01:38:00,20.1,17.6,30.50,WSW,243,0.0,0.0,90,0.00,,,0.00,0,Wunderground v.1.15,2013-01-28 06:38:00,
2013-01-28 01:44:00,20.2,17.7,30.50,WSW,243,0.0,0.0,90,0.00,,,0.00,0,Wunderground v.1.15,2013-01-28 06:44:00,
2013-01-28 01:50:00,20.3,17.8,30.50,WSW,243,0.0,0.0,90,0.00,,,0.00,0,Wunderground v.1.15,2013-01-28 06:50:00,
2013-01-28 01:56:00,20.5,18.3,30.49,WSW,243,0.0,0.0,91,0.00,,,0.00,0,Wunderground v.1.15,2013-01-28 06:56:00,
2013-01-28 02:02:00,20.6,18.4,30.49,WSW,243,0.0,0.0,91,0.00,,,0.00,0,Wunderground v.1.15,2013-01-28 07:02:00,
2013-01-28 02:08:00,20.8,18.6,30.49,WSW,243,0.0,0.0,91,0.00,,,0.00,0,Wunderground v.1.15,2013-01-28 07:08:00,
2013-01-28 02:14:00,21.1,18.9,30.48,WSW,243,0.0,0.0,91,0.00,,,0.00,0,Wunderground v.1.15,2013-01-28 07:14:00,
2013-01-28 02:20:00,21.3,19.1,30.49,WSW,243,0.0,0.0,91,0.00,,,0.00,0,Wunderground v.1.15,2013-01-28 07:20:00,
2013-01-28 02:26:00,21.4,19.2,30.48,WSW,243,0.0,0.0,91,0.00,,,0.00,0,Wunderground v.1.15,2013-01-28 07:26:00,
2013-01-28 02:32:00,21.6,19.4,30.48,WSW,243,0.0,0.0,91,0.00,,,0.00,0,Wunderground v.1.15,2013-01-28 07:32:00,
2013-01-28 02:38:00,21.8,19.8,30.48,WSW,243,0.0,0.0,92,0.00,,,0.00,0,Wunderground v.1.15,2013-01-28 07:38:00,
2013-01-28 02:44:00,22.0,20.0,30.48,WSW,243,0.0,0.0,92,0.00,,,0.00,0,Wunderground v.1.15,2013-01-28 07:44:00,
2013-01-28 02:50:00,22.2,20.2,30.47,WSW,243,0.0,0.0,92,0.00,,,0.00,0,Wunderground v.1.15,2013-01-28 07:50:00,
2013-01-28 02:56:00,22.5,20.5,30.47,WSW,243,0.0,0.0,92,0.00,,,0.00,0,Wunderground v.1.15,2013-01-28 07:56:00,
2013-01-28 03:02:00,22.7,20.7,30.46,WSW,243,0.0,0.0,92,0.00,,,0.00,0,Wunderground v.1.15,2013-01-28 08:02:00,
2013-01-28 03:08:00,22.8,20.8,30.46,WSW,243,0.0,0.0,92,0.00,,,0.00,0,Wunderground v.1.15,2013-01-28 08:08:00,
2013-01-28 03:14:00,22.9,20.9,30.46,WSW,243,0.0,0.0,92,0.00,,,0.00,0,Wunderground v.1.15,2013-01-28 08:14:00,
2013-01-28 03:20:00,23.1,21.1,30.45,WSW,243,0.0,0.0,92,0.00,,,0.00,0,Wunderground v.1.15,2013-01-28 08:20:00,
2013-01-28 03:26:00,23.4,21.4,30.45,WSW,243,0.0,0.0,92,0.00,,,0.00,0,Wunderground v.1.15,2013-01-28 08:26:00,
2013-01-28 03:32:00,23.6,21.6,30.45,WSW,243,0.0,0.0,92,0.00,,,0.00,0,Wunderground v.1.15,2013-01-28 08:32:00,
2013-01-28 03:38:00,23.7,21.7,30.45,WSW,243,0.0,0.0,92,0.00,,,0.00,0,Wunderground v.1.15,2013-01-28 08:38:00,
2013-01-28 03:44:00,23.8,21.8,30.45,WSW,243,0.0,0.0,92,0.00,,,0.00,0,Wunderground v.1.15,2013-01-28 08:44:00,
2013-01-28 03:50:00,23.9,21.9,30.45,WSW,243,0.0,0.0,92,0.00,,,0.00,0,Wunderground v.1.15,2013-01-28 08:50:00,
2013-01-28 03:56:00,24.0,22.0,30.45,WSW,243,0.0,0.0,92,0.00,,,0.00,0,Wunderground v.1.15,2013-01-28 08:56:00,
2013-01-28 04:02:00,24.1,22.1,30.45,WSW,243,0.0,0.0,92,0.00,,,0.00,0,Wunderground v.1.15,2013-01-28 09:02:00,
2013-01-28 04:08:00,24.5,22.8,30.45,WSW,243,0.0,0.0,93,0.00,,,0.00,0,Wunderground v.1.15,2013-01-28 09:08:00,
2013-01-28 04:14:00,24.7,23.0,30.44,WSW,243,0.0,0.0,93,0.00,,,0.00,0,Wunderground v.1.15,2013-01-28 09:14:00,
2013-01-28 04:20:00,24.8,23.1,30.45,WSW,243,0.0,0.0,93,0.00,,,0.00,0,Wunderground v.1.15,2013-01-28 09:20:00,
2013-01-28 04:26:00,25.1,23.4,30.44,WSW,243,0.0,0.0,93,0.00,,,0.00,0,Wunderground v.1.15,2013-01-28 09:26:00,
2013-01-28 04:32:00,25.5,23.8,30.44,WSW,243,0.0,0.0,93,0.00,,,0.00,0,Wunderground v.1.15,2013-01-28 09:32:00,
2013-01-28 04:38:00,25.7,24.0,30.44,WSW,243,0.0,0.0,93,0.00,,,0.00,0,Wunderground v.1.15,2013-01-28 09:38:00,
2013-01-28 04:44:00,25.9,24.2,30.43,WSW,243,0.0,0.0,93,0.00,,,0.00,0,Wunderground v.1.15,2013-01-28 09:44:00,
2013-01-28 04:50:00,26.3,24.6,30.43,WSW,243,0.0,0.0,93,0.00,,,0.00,0,Wunderground v.1.15,2013-01-28 09:50:00,
2013-01-28 04:56:00,26.5,24.8,30.43,WSW,243,0.0,0.0,93,0.00,,,0.00,0,Wunderground v.1.15,2013-01-28 09:56:00,
2013-01-28 05:02:00,26.6,24.8,30.43,WSW,243,0.0,0.0,93,0.00,,,0.00,0,Wunderground v.1.15,2013-01-28 10:02:00,
2013-01-28 05:08:00,26.8,25.0,30.43,WSW,243,0.0,0.0,93,0.00,,,0.00,0,Wunderground v.1.15,2013-01-28 10:08:00,
2013-01-28 05:14:00,26.9,25.1,30.43,WSW,243,0.0,0.0,93,0.00,,,0.00,0,Wunderground v.1.15,2013-01-28 10:14:00,
2013-01-28 05:20:00,27.0,25.2,30.43,WSW,243,0.0,0.0,93,0.00,,,0.00,0,Wunderground v.1.15,2013-01-28 10:20:00,
2013-01-28 05:26:00,27.2,25.4,30.43,WSW,243,0.0,0.0,93,0.00,,,0.00,0,Wunderground v.1.15,2013-01-28 10:26:00,
2013-01-28 05:32:00,27.3,25.5,30.43,WSW,243,0.0,0.0,93,0.00,,,0.00,0,Wunderground v.1.15,2013-01-28 10:32:00,
2013-01-28 05:38:00,27.5,26.0,30.43,WSW,243,0.0,0.0,94,0.00,,,0.00,0,Wunderground v.1.15,2013-01-28 10:38:00,
2013-01-28 05:44:00,27.8,26.0,30.42,WSW,243,0.0,0.0,93,0.00,,,0.00,0,Wunderground v.1.15,2013-01-28 10:44:00,
2013-01-28 05:50:00,27.9,26.4,30.42,WSW,243,0.0,0.0,94,0.00,,,0.00,0,Wunderground v.1.15,2013-01-28 10:50:00,
2013-01-28 05:56:00,28.1,26.3,30.42,WSW,243,0.0,0.0,93,0.00,,,0.00,0,Wunderground v.1.15,2013-01-28 10:56:00,
2013-01-28 06:02:00,28.4,26.9,30.42,WSW,243,0.0,1.0,94,0.00,,,0.00,0,Wunderground v.1.15,2013-01-28 11:02:00,
2013-01-28 06:08:00,28.7,27.2,30.42,WSW,243,1.0,1.0,94,0.00,,,0.00,0,Wunderground v.1.15,2013-01-28 11:08:00,
2013-01-28 06:14:00,29.0,27.5,30.42,WSW,243,0.0,0.0,94,0.00,,,0.00,0,Wunderground v.1.15,2013-01-28 11:14:00,
2013-01-28 06:20:00,29.3,27.5,30.43,WSW,243,1.0,2.0,93,0.00,,,0.00,0,Wunderground v.1.15,2013-01-28 11:20:00,
2013-01-28 06:26:00,29.9,28.1,30.42,SSW,197,3.0,4.0,93,0.00,,,0.00,0,Wunderground v.1.15,2013-01-28 11:26:00,
2013-01-28 06:32:00,30.5,28.7,30.43,SSW,197,4.0,4.0,93,0.00,,,0.00,0,Wunderground v.1.15,2013-01-28 11:32:00,
2013-01-28 06:38:00,30.9,29.1,30.43,SSW,201,3.0,4.0,93,0.00,,,0.00,0,Wunderground v.1.15,2013-01-28 11:38:00,
2013-01-28 06:44:00,31.2,29.1,30.43,SSW,201,3.0,4.0,92,0.00,,,0.00,0,Wunderground v.1.15,2013-01-28 11:44:00,
2013-01-28 06:50:00,31.4,29.3,30.42,SSW,201,3.0,4.0,92,0.00,,,0.00,0,Wunderground v.1.15,2013-01-28 11:50:00,
2013-01-28 06:56:00,31.6,29.3,30.43,SSW,200,3.0,5.0,91,0.00,,,0.00,0,Wunderground v.1.15,2013-01-28 11:56:00,
2013-01-28 07:02:00,31.8,29.5,30.43,SSW,207,4.0,5.0,91,0.00,,,0.00,0,Wunderground v.1.15,2013-01-28 12:02:00,
2013-01-28 07:08:00,31.9,29.6,30.42,SSW,205,4.0,5.0,91,0.00,,,0.00,0,Wunderground v.1.15,2013-01-28 12:08:00,
2013-01-28 07:14:00,32.0,29.7,30.42,SSW,205,3.0,4.0,91,0.00,,,0.00,0,Wunderground v.1.15,2013-01-28 12:14:00,
2013-01-28 07:20:00,32.2,29.6,30.42,SSW,205,4.0,5.0,90,0.00,,,0.00,0,Wunderground v.1.15,2013-01-28 12:20:00,
2013-01-28 07:26:00,32.4,29.8,30.43,SSW,197,4.0,5.0,90,0.00,,,0.00,0,Wunderground v.1.15,2013-01-28 12:26:00,
2013-01-28 07:32:00,32.5,29.6,30.43,SSW,202,4.0,4.0,89,0.00,,,0.00,5,Wunderground v.1.15,2013-01-28 12:32:00,
2013-01-28 07:38:00,32.6,29.7,30.43,SSW,202,4.0,4.0,89,0.00,,,0.00,5,Wunderground v.1.15,2013-01-28 12:38:00,
2013-01-28 07:44:00,32.7,29.8,30.42,SSW,202,2.0,3.0,89,0.00,,,0.00,5,Wunderground v.1.15,2013-01-28 12:44:00,
2013-01-28 07:50:00,32.7,30.1,30.42,SSW,200,2.0,2.0,90,0.00,,,0.00,7,Wunderground v.1.15,2013-01-28 12:50:00,
2013-01-28 07:56:00,32.6,30.0,30.42,SSW,198,3.0,3.0,90,0.00,,,0.00,12,Wunderground v.1.15,2013-01-28 12:56:00,
2013-01-28 08:02:00,32.7,30.1,30.42,SSW,213,3.0,5.0,90,0.00,,,0.00,18,Wunderground v.1.15,2013-01-28 13:02:00,
2013-01-28 08:08:00,32.7,30.1,30.43,SSW,197,4.0,7.0,90,0.00,,,0.00,18,Wunderground v.1.15,2013-01-28 13:08:00,
2013-01-28 08:14:00,32.6,30.3,30.43,SSW,204,5.0,5.0,91,0.00,,,0.00,21,Wunderground v.1.15,2013-01-28 13:14:00,
2013-01-28 08:20:00,32.6,30.3,30.43,SW,215,5.0,5.0,91,0.00,,,0.00,23,Wunderground v.1.15,2013-01-28 13:20:00,
2013-01-28 08:26:00,32.6,30.5,30.43,SSW,200,5.0,7.0,92,0.00,,,0.00,33,Wunderground v.1.15,2013-01-28 13:26:00,
2013-01-28 08:32:00,32.6,30.5,30.43,South,172,5.0,5.0,92,0.00,,,0.00,37,Wunderground v.1.15,2013-01-28 13:32:00,
2013-01-28 08:38:00,32.5,30.4,30.42,SW,221,5.0,7.0,92,0.00,,,0.00,39,Wunderground v.1.15,2013-01-28 13:38:00,
2013-01-28 08:44:00,32.5,30.7,30.43,SSW,211,5.0,6.0,93,0.00,,,0.00,39,Wunderground v.1.15,2013-01-28 13:44:00,
2013-01-28 08:50:00,32.5,30.7,30.42,SSW,196,4.0,4.0,93,0.00,,,0.00,40,Wunderground v.1.15,2013-01-28 13:50:00,
2013-01-28 08:58:00,32.6,30.8,30.42,SSW,194,4.0,6.0,93,0.00,,,0.00,58,Wunderground v.1.15,2013-01-28 13:58:00,
2013-01-28 09:04:00,32.7,30.9,30.42,SSW,213,4.0,4.0,93,0.00,,,0.00,67,Wunderground v.1.15,2013-01-28 14:04:00,
2013-01-28 09:10:00,32.8,31.0,30.42,SSW,196,4.0,4.0,93,0.00,,,0.00,76,Wunderground v.1.15,2013-01-28 14:10:00,
2013-01-28 09:16:00,32.9,31.1,30.41,SSW,196,4.0,6.0,93,0.00,,,0.00,130,Wunderground v.1.15,2013-01-28 14:16:00,
2013-01-28 09:22:00,33.1,31.6,30.41,SSW,200,4.0,5.0,94,0.00,,,0.00,93,Wunderground v.1.15,2013-01-28 14:22:00,
2013-01-28 09:28:00,33.3,31.5,30.41,South,188,4.0,5.0,93,0.00,,,0.00,113,Wunderground v.1.15,2013-01-28 14:28:00,
2013-01-28 09:34:00,33.4,31.6,30.40,SSW,206,4.0,4.0,93,0.00,,,0.00,69,Wunderground v.1.15,2013-01-28 14:34:00,
2013-01-28 09:40:00,33.5,31.7,30.39,SSW,196,3.0,3.0,93,0.00,,,0.00,60,Wunderground v.1.15,2013-01-28 14:40:00,
2013-01-28 09:46:00,33.6,31.8,30.38,SSW,205,3.0,7.0,93,0.00,,,0.00,100,Wunderground v.1.15,2013-01-28 14:46:00,
2013-01-28 09:52:00,33.7,31.9,30.38,South,177,4.0,5.0,93,0.00,,,0.00,127,Wunderground v.1.15,2013-01-28 14:52:00,
2013-01-28 09:58:00,33.9,32.1,30.37,SSW,202,5.0,6.0,93,0.00,,,0.00,146,Wunderground v.1.15,2013-01-28 14:58:00,
2013-01-28 10:04:00,34.1,32.0,30.38,SSW,207,5.0,9.0,92,0.00,,,0.00,163,Wunderground v.1.15,2013-01-28 15:04:00,
2013-01-28 10:10:00,34.3,32.2,30.38,SSW,205,5.0,8.0,92,0.00,,,0.00,142,Wunderground v.1.15,2013-01-28 15:10:00,
2013-01-28 10:16:00,34.4,32.3,30.39,SSW,211,4.0,8.0,92,0.00,,,0.00,132,Wunderground v.1.15,2013-01-28 15:16:00,
2013-01-28 10:22:00,34.5,32.1,30.39,SSW,203,5.0,6.0,91,0.00,,,0.00,91,Wunderground v.1.15,2013-01-28 15:22:00,
2013-01-28 10:28:00,34.5,32.1,30.39,SSW,194,5.0,6.0,91,0.00,,,0.00,139,Wunderground v.1.15,2013-01-28 15:28:00,
2013-01-28 10:34:00,34.6,32.2,30.38,SSW,205,5.0,6.0,91,0.00,,,0.00,174,Wunderground v.1.15,2013-01-28 15:34:00,
2013-01-28 10:40:00,34.7,32.1,30.38,SSW,207,5.0,5.0,90,0.00,,,0.01,148,Wunderground v.1.15,2013-01-28 15:40:00,
2013-01-28 10:46:00,34.9,32.3,30.38,SSW,194,4.0,6.0,90,0.00,,,0.01,125,Wunderground v.1.15,2013-01-28 15:46:00,
2013-01-28 10:52:00,34.9,32.3,30.37,SSW,207,4.0,7.0,90,0.00,,,0.01,97,Wunderground v.1.15,2013-01-28 15:52:00,
2013-01-28 10:58:00,34.9,32.0,30.37,SSW,198,5.0,7.0,89,0.00,,,0.01,84,Wunderground v.1.15,2013-01-28 15:58:00,
2013-01-28 11:04:00,34.7,31.8,30.36,SSW,206,5.0,6.0,89,0.00,,,0.01,74,Wunderground v.1.15,2013-01-28 16:04:00,
2013-01-28 11:10:00,34.6,31.7,30.36,South,186,5.0,8.0,89,0.00,,,0.01,69,Wunderground v.1.15,2013-01-28 16:10:00,
2013-01-28 11:16:00,34.5,31.9,30.35,SSW,204,5.0,8.0,90,0.00,,,0.01,81,Wunderground v.1.15,2013-01-28 16:16:00,
2013-01-28 11:22:00,34.4,31.8,30.35,SSW,210,5.0,5.0,90,0.00,,,0.01,104,Wunderground v.1.15,2013-01-28 16:22:00,
2013-01-28 11:28:00,34.5,32.1,30.34,SSW,200,4.0,6.0,91,0.00,,,0.02,134,Wunderground v.1.15,2013-01-28 16:28:00,
2013-01-28 11:34:00,34.5,32.1,30.33,SSW,196,4.0,5.0,91,0.00,,,0.02,88,Wunderground v.1.15,2013-01-28 16:34:00,
2013-01-28 11:40:00,34.5,32.1,30.32,SSW,203,5.0,5.0,91,0.00,,,0.02,77,Wunderground v.1.15,2013-01-28 16:40:00,
2013-01-28 11:46:00,34.4,32.0,30.32,SSW,201,5.0,6.0,91,0.00,,,0.02,91,Wunderground v.1.15,2013-01-28 16:46:00,
2013-01-28 11:52:00,34.4,32.0,30.31,SSW,201,4.0,7.0,91,0.00,,,0.02,137,Wunderground v.1.15,2013-01-28 16:52:00,
2013-01-28 11:58:00,34.5,32.4,30.31,SSW,207,5.0,7.0,92,0.00,,,0.02,109,Wunderground v.1.15,2013-01-28 16:58:00,
2013-01-28 12:04:00,34.4,32.3,30.30,SSW,204,5.0,7.0,92,0.00,,,0.02,49,Wunderground v.1.15,2013-01-28 17:04:00,
2013-01-28 12:10:00,34.3,32.2,30.30,SSW,192,5.0,6.0,92,0.00,,,0.02,53,Wunderground v.1.15,2013-01-28 17:10:00,
2013-01-28 12:16:00,34.1,32.0,30.29,SSW,199,6.0,6.0,92,0.00,,,0.02,88,Wunderground v.1.15,2013-01-28 17:16:00,
2013-01-28 12:22:00,34.2,32.4,30.28,South,187,5.0,6.0,93,0.00,,,0.02,125,Wunderground v.1.15,2013-01-28 17:22:00,
2013-01-28 12:28:00,34.3,32.5,30.28,SSW,195,4.0,6.0,93,0.00,,,0.03,134,Wunderground v.1.15,2013-01-28 17:28:00,
2013-01-28 12:34:00,34.5,32.7,30.27,SSW,194,4.0,5.0,93,0.00,,,0.03,95,Wunderground v.1.15,2013-01-28 17:34:00,
2013-01-28 12:40:00,34.5,32.7,30.26,South,184,4.0,4.0,93,0.00,,,0.03,98,Wunderground v.1.15,2013-01-28 17:40:00,
2013-01-28 12:48:00,34.5,32.7,30.25,SSW,202,4.0,6.0,93,0.00,,,0.03,81,Wunderground v.1.15,2013-01-28 17:48:00,
2013-01-28 12:54:00,34.4,32.6,30.25,SSW,201,5.0,6.0,93,0.00,,,0.03,81,Wunderground v.1.15,2013-01-28 17:54:00,
2013-01-28 13:00:00,34.4,32.6,30.24,SSW,200,5.0,5.0,93,0.00,,,0.03,111,Wunderground v.1.15,2013-01-28 18:00:00,
2013-01-28 13:06:00,34.4,32.6,30.23,SSW,199,5.0,6.0,93,0.00,,,0.03,113,Wunderground v.1.15,2013-01-28 18:06:00,
2013-01-28 13:12:00,34.4,32.6,30.22,SSW,194,6.0,7.0,93,0.00,,,0.04,102,Wunderground v.1.15,2013-01-28 18:12:00,
2013-01-28 13:18:00,34.4,32.6,30.22,SSW,193,5.0,7.0,93,0.00,,,0.04,90,Wunderground v.1.15,2013-01-28 18:18:00,
2013-01-28 13:24:00,34.4,32.9,30.21,SSW,209,5.0,7.0,94,0.00,,,0.04,109,Wunderground v.1.15,2013-01-28 18:24:00,
2013-01-28 13:30:00,34.6,33.1,30.20,SSW,192,5.0,5.0,94,0.00,,,0.04,151,Wunderground v.1.15,2013-01-28 18:30:00,
2013-01-28 13:36:00,34.8,33.2,30.19,South,190,4.0,5.0,94,0.00,,,0.04,127,Wunderground v.1.15,2013-01-28 18:36:00,
2013-01-28 13:42:00,34.9,33.3,30.19,SSW,203,5.0,9.0,94,0.00,,,0.04,141,Wunderground v.1.15,2013-01-28 18:42:00,
2013-01-28 13:48:00,35.0,33.4,30.18,South,188,6.0,9.0,94,0.00,,,0.04,167,Wunderground v.1.15,2013-01-28 18:48:00,
2013-01-28 13:54:00,35.3,33.7,30.19,South,178,5.0,6.0,94,0.00,,,0.04,151,Wunderground v.1.15,2013-01-28 18:54:00,
2013-01-28 14:00:00,35.4,33.8,30.18,SSW,203,4.0,6.0,94,0.00,,,0.04,90,Wunderground v.1.15,2013-01-28 19:00:00,
2013-01-28 14:06:00,35.5,33.9,30.17,SSW,207,4.0,6.0,94,0.00,,,0.04,141,Wunderground v.1.15,2013-01-28 19:06:00,
2013-01-28 14:12:00,35.5,33.9,30.17,SSW,205,4.0,6.0,94,0.00,,,0.04,134,Wunderground v.1.15,2013-01-28 19:12:00,
2013-01-28 14:18:00,35.6,34.0,30.17,South,190,5.0,6.0,94,0.00,,,0.04,153,Wunderground v.1.15,2013-01-28 19:18:00,
2013-01-28 14:24:00,35.7,34.1,30.17,SSW,198,4.0,4.0,94,0.00,,,0.04,134,Wunderground v.1.15,2013-01-28 19:24:00,
2013-01-28 14:30:00,35.8,34.2,30.18,SW,232,3.0,3.0,94,0.00,,,0.04,111,Wunderground v.1.15,2013-01-28 19:30:00,
2013-01-28 14:36:00,35.8,34.2,30.17,South,188,3.0,5.0,94,0.00,,,0.04,137,Wunderground v.1.15,2013-01-28 19:36:00,
2013-01-28 14:42:00,35.9,34.3,30.16,SSW,194,4.0,5.0,94,0.00,,,0.04,121,Wunderground v.1.15,2013-01-28 19:42:00,
2013-01-28 14:48:00,35.9,34.3,30.15,SSW,203,5.0,6.0,94,0.00,,,0.04,111,Wunderground v.1.15,2013-01-28 19:48:00,
2013-01-28 14:54:00,35.9,34.1,30.15,SSW,210,5.0,8.0,93,0.00,,,0.04,56,Wunderground v.1.15,2013-01-28 19:54:00,
2013-01-28 15:00:00,35.8,34.0,30.14,SSW,210,5.0,5.0,93,0.00,,,0.04,49,Wunderground v.1.15,2013-01-28 20:00:00,
2013-01-28 15:06:00,35.8,34.0,30.15,SSW,200,4.0,5.0,93,0.00,,,0.04,49,Wunderground v.1.15,2013-01-28 20:06:00,
2013-01-28 15:12:00,35.7,33.9,30.14,SSW,198,4.0,5.0,93,0.00,,,0.04,47,Wunderground v.1.15,2013-01-28 20:12:00,
2013-01-28 15:18:00,35.7,33.9,30.12,SSW,207,3.0,5.0,93,0.00,,,0.04,35,Wunderground v.1.15,2013-01-28 20:18:00,
2013-01-28 15:24:00,35.7,33.9,30.12,SSW,201,3.0,5.0,93,0.00,,,0.04,46,Wunderground v.1.15,2013-01-28 20:24:00,
2013-01-28 15:30:00,35.8,34.2,30.12,SSW,196,4.0,4.0,94,0.00,,,0.04,47,Wunderground v.1.15,2013-01-28 20:30:00,
2013-01-28 15:36:00,35.9,34.3,30.12,SSW,198,3.0,4.0,94,0.00,,,0.04,51,Wunderground v.1.15,2013-01-28 20:36:00,
2013-01-28 15:42:00,36.0,34.4,30.12,SSW,198,3.0,6.0,94,0.00,,,0.04,69,Wunderground v.1.15,2013-01-28 20:42:00,
2013-01-28 15:48:00,36.0,34.4,30.13,SSW,198,2.0,6.0,94,0.00,,,0.04,32,Wunderground v.1.15,2013-01-28 20:48:00,
2013-01-28 15:54:00,36.1,34.5,30.13,WSW,243,2.0,3.0,94,0.00,,,0.04,30,Wunderground v.1.15,2013-01-28 20:54:00,
2013-01-28 16:00:00,36.1,34.5,30.12,WSW,239,1.0,1.0,94,0.00,,,0.04,14,Wunderground v.1.15,2013-01-28 21:00:00,
2013-01-28 16:06:00,36.1,34.5,30.12,WSW,239,1.0,1.0,94,0.00,,,0.04,9,Wunderground v.1.15,2013-01-28 21:06:00,
2013-01-28 16:12:00,36.1,34.5,30.12,SSW,204,1.0,6.0,94,0.00,,,0.04,11,Wunderground v.1.15,2013-01-28 21:12:00,
2013-01-28 16:18:00,36.1,34.5,30.11,SSW,204,2.0,6.0,94,0.00,,,0.04,30,Wunderground v.1.15,2013-01-28 21:18:00,
2013-01-28 16:24:00,36.3,34.7,30.11,SSW,211,2.0,2.0,94,0.00,,,0.04,21,Wunderground v.1.15,2013-01-28 21:24:00,
2013-01-28 16:30:00,36.4,34.8,30.11,SSW,211,2.0,2.0,94,0.00,,,0.04,16,Wunderground v.1.15,2013-01-28 21:30:00,
2013-01-28 16:36:00,36.4,34.8,30.11,SSW,211,1.0,2.0,94,0.00,,,0.04,12,Wunderground v.1.15,2013-01-28 21:36:00,
2013-01-28 16:42:00,36.4,34.8,30.11,SSW,211,0.0,0.0,94,0.00,,,0.04,16,Wunderground v.1.15,2013-01-28 21:42:00,
2013-01-28 16:48:00,36.4,34.8,30.11,SSW,211,0.0,2.0,94,0.00,,,0.04,7,Wunderground v.1.15,2013-01-28 21:48:00,
2013-01-28 16:54:00,36.4,34.8,30.11,SSW,211,0.0,0.0,94,0.00,,,0.04,5,Wunderground v.1.15,2013-01-28 21:54:00,
2013-01-28 17:00:00,36.4,34.8,30.12,SSW,211,0.0,0.0,94,0.00,,,0.04,12,Wunderground v.1.15,2013-01-28 22:00:00,
2013-01-28 17:06:00,36.3,34.7,30.11,SSW,211,0.0,0.0,94,0.00,,,0.04,5,Wunderground v.1.15,2013-01-28 22:06:00,
2013-01-28 17:12:00,36.2,34.6,30.12,SSW,211,0.0,0.0,94,0.00,,,0.04,0,Wunderground v.1.15,2013-01-28 22:12:00,
2013-01-28 17:18:00,36.1,34.5,30.11,SSW,211,0.0,0.0,94,0.00,,,0.05,0,Wunderground v.1.15,2013-01-28 22:18:00,
2013-01-28 17:24:00,36.1,34.5,30.11,SSW,211,0.0,0.0,94,0.10,,,0.06,0,Wunderground v.1.15,2013-01-28 22:24:00,
2013-01-28 17:30:00,36.1,34.5,30.11,SSW,211,0.0,0.0,94,0.07,,,0.06,0,Wunderground v.1.15,2013-01-28 22:30:00,
2013-01-28 17:36:00,36.2,34.6,30.11,SSW,211,0.0,1.0,94,0.04,,,0.06,0,Wunderground v.1.15,2013-01-28 22:36:00,
2013-01-28 17:42:00,36.2,34.6,30.10,SSW,211,0.0,2.0,94,0.00,,,0.06,0,Wunderground v.1.15,2013-01-28 22:42:00,
2013-01-28 17:48:00,36.4,34.8,30.10,SW,215,1.0,4.0,94,0.00,,,0.06,0,Wunderground v.1.15,2013-01-28 22:48:00,
2013-01-28 17:54:00,36.5,34.9,30.10,SSW,207,2.0,2.0,94,0.00,,,0.06,0,Wunderground v.1.15,2013-01-28 22:54:00,
2013-01-28 18:00:00,36.6,35.0,30.10,SW,215,2.0,4.0,94,0.00,,,0.07,0,Wunderground v.1.15,2013-01-28 23:00:00,
2013-01-28 18:06:00,36.6,35.0,30.10,SW,215,2.0,4.0,94,0.00,,,0.07,0,Wunderground v.1.15,2013-01-28 23:06:00,
2013-01-28 18:12:00,36.7,35.1,30.11,SW,215,2.0,2.0,94,0.00,,,0.07,0,Wunderground v.1.15,2013-01-28 23:12:00,
2013-01-28 18:18:00,36.7,35.1,30.11,SW,231,2.0,4.0,94,0.00,,,0.07,0,Wunderground v.1.15,2013-01-28 23:18:00,
2013-01-28 18:24:00,36.9,35.3,30.11,SW,234,2.0,2.0,94,0.00,,,0.07,0,Wunderground v.1.15,2013-01-28 23:24:00,
2013-01-28 18:30:00,37.0,35.4,30.10,SW,227,2.0,4.0,94,0.00,,,0.07,0,Wunderground v.1.15,2013-01-28 23:30:00,
2013-01-28 18:38:00,37.2,35.6,30.10,SW,228,3.0,4.0,94,0.00,,,0.07,0,Wunderground v.1.15,2013-01-28 23:38:00,
2013-01-28 18:44:00,37.3,35.7,30.10,WSW,247,2.0,3.0,94,0.00,,,0.07,0,Wunderground v.1.15,2013-01-28 23:44:00,
2013-01-28 18:50:00,37.4,35.8,30.10,WSW,250,2.0,2.0,94,0.00,,,0.07,0,Wunderground v.1.15,2013-01-28 23:50:00,
2013-01-28 18:56:00,37.5,35.9,30.10,WSW,244,2.0,8.0,94,0.00,,,0.07,0,Wunderground v.1.15,2013-01-28 23:56:00,
2013-01-28 19:02:00,37.6,36.0,30.09,WSW,247,3.0,3.0,94,0.00,,,0.07,0,Wunderground v.1.15,2013-01-29 00:02:00,
2013-01-28 19:08:00,37.6,36.0,30.09,WSW,239,3.0,4.0,94,0.00,,,0.07,0,Wunderground v.1.15,2013-01-29 00:08:00,
2013-01-28 19:14:00,37.7,36.1,30.10,WSW,258,3.0,5.0,94,0.00,,,0.07,0,Wunderground v.1.15,2013-01-29 00:14:00,
2013-01-28 19:20:00,37.7,36.1,30.09,SSW,209,4.0,4.0,94,0.00,,,0.07,0,Wunderground v.1.15,2013-01-29 00:20:00,
2013-01-28 19:26:00,37.8,36.0,30.09,WSW,240,3.0,4.0,93,0.00,,,0.07,0,Wunderground v.1.15,2013-01-29 00:26:00,
2013-01-28 19:32:00,37.8,36.0,30.09,SW,231,2.0,2.0,93,0.00,,,0.07,0,Wunderground v.1.15,2013-01-29 00:32:00,
2013-01-28 19:38:00,37.8,36.0,30.08,South,189,2.0,3.0,93,0.00,,,0.07,0,Wunderground v.1.15,2013-01-29 00:38:00,
2013-01-28 19:44:00,37.6,35.8,30.08,SSW,194,3.0,4.0,93,0.00,,,0.07,0,Wunderground v.1.15,2013-01-29 00:44:00,
2013-01-28 19:50:00,37.5,35.7,30.08,SSW,194,2.0,2.0,93,0.00,,,0.07,0,Wunderground v.1.15,2013-01-29 00:50:00,
2013-01-28 19:56:00,37.4,35.6,30.08,SSW,194,1.0,2.0,93,0.00,,,0.07,0,Wunderground v.1.15,2013-01-29 00:56:00,
2013-01-28 20:02:00,37.4,35.6,30.08,SSW,194,1.0,1.0,93,0.00,,,0.07,0,Wunderground v.1.15,2013-01-29 01:02:00,
2013-01-28 20:08:00,37.3,35.5,30.08,SSW,194,0.0,2.0,93,0.00,,,0.07,0,Wunderground v.1.15,2013-01-29 01:08:00,
2013-01-28 20:14:00,37.3,35.5,30.08,SSW,194,0.0,1.0,93,0.00,,,0.07,0,Wunderground v.1.15,2013-01-29 01:14:00,
2013-01-28 20:20:00,37.3,35.5,30.08,SSW,194,0.0,0.0,93,0.00,,,0.07,0,Wunderground v.1.15,2013-01-29 01:20:00,
2013-01-28 20:26:00,37.3,35.5,30.08,SSW,194,0.0,1.0,93,0.00,,,0.07,0,Wunderground v.1.15,2013-01-29 01:26:00,
2013-01-28 20:32:00,37.3,35.5,30.08,SSW,194,0.0,1.0,93,0.00,,,0.07,0,Wunderground v.1.15,2013-01-29 01:32:00,
2013-01-28 20:38:00,37.3,35.5,30.07,SSW,194,0.0,2.0,93,0.00,,,0.07,0,Wunderground v.1.15,2013-01-29 01:38:00,
2013-01-28 20:44:00,37.3,35.5,30.07,SSW,194,1.0,2.0,93,0.00,,,0.07,0,Wunderground v.1.15,2013-01-29 01:44:00,
2013-01-28 20:50:00,37.3,35.5,30.06,SSW,194,1.0,2.0,93,0.00,,,0.07,0,Wunderground v.1.15,2013-01-29 01:50:00,
2013-01-28 20:56:00,37.3,35.5,30.06,SSW,193,3.0,5.0,93,0.00,,,0.07,0,Wunderground v.1.15,2013-01-29 01:56:00,
2013-01-28 21:02:00,37.4,35.6,30.06,SSW,203,3.0,3.0,93,0.00,,,0.07,0,Wunderground v.1.15,2013-01-29 02:02:00,
2013-01-28 21:08:00,37.4,35.6,30.06,SSW,203,1.0,3.0,93,0.00,,,0.07,0,Wunderground v.1.15,2013-01-29 02:08:00,
2013-01-28 21:14:00,37.4,35.6,30.06,SSW,203,1.0,2.0,93,0.00,,,0.07,0,Wunderground v.1.15,2013-01-29 02:14:00,
2013-01-28 21:20:00,37.6,35.8,30.05,SSW,203,3.0,4.0,93,0.00,,,0.07,0,Wunderground v.1.15,2013-01-29 02:20:00,
2013-01-28 21:26:00,37.8,36.0,30.05,SSW,198,4.0,5.0,93,0.00,,,0.07,0,Wunderground v.1.15,2013-01-29 02:26:00,
2013-01-28 21:32:00,38.1,36.3,30.05,SSW,202,3.0,4.0,93,0.00,,,0.07,0,Wunderground v.1.15,2013-01-29 02:32:00,
2013-01-28 21:38:00,38.3,36.5,30.05,SSW,207,3.0,4.0,93,0.00,,,0.07,0,Wunderground v.1.15,2013-01-29 02:38:00,
2013-01-28 21:44:00,38.3,36.5,30.05,SSW,207,2.0,4.0,93,0.00,,,0.07,0,Wunderground v.1.15,2013-01-29 02:44:00,
2013-01-28 21:50:00,38.4,36.6,30.05,SSW,207,1.0,1.0,93,0.00,,,0.07,0,Wunderground v.1.15,2013-01-29 02:50:00,
2013-01-28 21:56:00,38.5,36.7,30.05,SSW,207,1.0,2.0,93,0.00,,,0.07,0,Wunderground v.1.15,2013-01-29 02:56:00,
2013-01-28 22:02:00,38.5,36.7,30.05,SSW,207,1.0,1.0,93,0.00,,,0.07,0,Wunderground v.1.15,2013-01-29 03:02:00,
2013-01-28 22:08:00,38.5,36.7,30.05,SSW,207,0.0,1.0,93,0.00,,,0.07,0,Wunderground v.1.15,2013-01-29 03:08:00,
2013-01-28 22:14:00,38.4,36.6,30.05,SSW,207,0.0,1.0,93,0.00,,,0.07,0,Wunderground v.1.15,2013-01-29 03:14:00,
2013-01-28 22:20:00,38.3,36.2,30.06,SSW,207,0.0,1.0,92,0.00,,,0.07,0,Wunderground v.1.15,2013-01-29 03:20:00,
2013-01-28 22:26:00,38.3,36.2,30.05,SSW,207,0.0,1.0,92,0.00,,,0.07,0,Wunderground v.1.15,2013-01-29 03:26:00,
2013-01-28 22:32:00,38.2,36.1,30.05,SSW,207,0.0,0.0,92,0.00,,,0.07,0,Wunderground v.1.15,2013-01-29 03:32:00,
2013-01-28 22:38:00,38.1,36.0,30.04,SSW,207,0.0,0.0,92,0.00,,,0.07,0,Wunderground v.1.15,2013-01-29 03:38:00,
2013-01-28 22:44:00,38.1,36.0,30.04,SSW,207,0.0,0.0,92,0.00,,,0.07,0,Wunderground v.1.15,2013-01-29 03:44:00,
2013-01-28 22:50:00,38.1,36.0,30.05,SSW,207,0.0,1.0,92,0.00,,,0.07,0,Wunderground v.1.15,2013-01-29 03:50:00,
2013-01-28 22:56:00,38.1,36.0,30.05,SSW,207,0.0,1.0,92,0.00,,,0.07,0,Wunderground v.1.15,2013-01-29 03:56:00,
2013-01-28 23:02:00,38.1,36.0,30.05,SSW,207,0.0,0.0,92,0.00,,,0.07,0,Wunderground v.1.15,2013-01-29 04:02:00,
2013-01-28 23:08:00,38.1,36.3,30.05,SSW,207,0.0,0.0,93,0.00,,,0.07,0,Wunderground v.1.15,2013-01-29 04:08:00,
2013-01-28 23:14:00,38.1,36.3,30.05,SSW,207,0.0,0.0,93,0.00,,,0.07,0,Wunderground v.1.15,2013-01-29 04:14:00,
2013-01-28 23:20:00,38.1,36.3,30.05,SSW,207,0.0,0.0,93,0.00,,,0.07,0,Wunderground v.1.15,2013-01-29 04:20:00,
2013-01-28 23:26:00,38.0,36.2,30.05,SSW,207,0.0,0.0,93,0.00,,,0.07,0,Wunderground v.1.15,2013-01-29 04:26:00,
2013-01-28 23:32:00,38.0,36.2,30.05,SSW,207,0.0,0.0,93,0.00,,,0.07,0,Wunderground v.1.15,2013-01-29 04:32:00,
2013-01-28 23:38:00,38.0,36.2,30.05,SSW,207,0.0,0.0,93,0.00,,,0.07,0,Wunderground v.1.15,2013-01-29 04:38:00,
2013-01-28 23:44:00,38.2,36.4,30.04,SSW,207,0.0,2.0,93,0.00,,,0.07,0,Wunderground v.1.15,2013-01-29 04:44:00,
2013-01-28 23:50:00,38.3,36.5,30.05,SSW,207,1.0,1.0,93,0.00,,,0.07,0,Wunderground v.1.15,2013-01-29 04:50:00,
2013-01-28 23:56:00,38.4,36.6,30.05,SSW,207,1.0,1.0,93,0.00,,,0.07,0,Wunderground v.1.15,2013-01-29 04:56:00,